createdAt,value
2023-03-16T00:00:47.554Z,2.40
2023-03-16T00:03:20.429Z,2.40
2023-03-16T00:05:55.937Z,2.40
2023-03-16T00:08:22.930Z,2.40
2023-03-16T00:10:49.934Z,2.30
2023-03-16T00:13:17.191Z,2.30
2023-03-16T00:15:54.691Z,2.30
2023-03-16T00:18:23.610Z,2.30
2023-03-16T00:20:54.064Z,2.30
2023-03-16T00:23:27.471Z,2.30
2023-03-16T00:25:59.208Z,2.30
2023-03-16T00:28:26.971Z,2.20
2023-03-16T00:30:58.965Z,2.20
2023-03-16T00:33:26.082Z,2.20
2023-03-16T00:36:02.225Z,2.20
2023-03-16T00:38:35.847Z,2.20
2023-03-16T00:41:05.496Z,2.20
2023-03-16T00:43:41.368Z,2.10
2023-03-16T00:46:15.612Z,2.10
2023-03-16T00:48:43.634Z,2.10
2023-03-16T00:51:12.961Z,2.10
2023-03-16T00:53:41.272Z,2.10
2023-03-16T00:56:08.666Z,2.10
2023-03-16T00:58:38.729Z,2.00
2023-03-16T01:01:07.144Z,2.00
2023-03-16T01:03:34.059Z,2.00
2023-03-16T01:06:05.847Z,2.00
2023-03-16T01:08:33.185Z,1.90
2023-03-16T01:11:07.433Z,1.90
2023-03-16T01:13:34.112Z,1.90
2023-03-16T01:16:00.797Z,1.80
2023-03-16T01:18:27.891Z,1.80
2023-03-16T01:20:54.513Z,1.70
2023-03-16T01:23:21.291Z,1.80
2023-03-16T01:25:54.451Z,1.80
2023-03-16T01:28:21.745Z,1.70
2023-03-16T01:30:48.871Z,1.60
2023-03-16T01:33:15.524Z,1.60
2023-03-16T01:35:42.307Z,1.60
2023-03-16T01:38:08.964Z,1.50
2023-03-16T01:40:38.424Z,1.50
2023-03-16T01:43:07.646Z,1.50
2023-03-16T01:45:53.223Z,1.50
2023-03-16T01:48:23.610Z,1.50
2023-03-16T01:50:52.554Z,1.50
2023-03-16T01:53:21.459Z,1.50
2023-03-16T01:55:48.546Z,1.50
2023-03-16T01:58:15.194Z,1.50
2023-03-16T02:00:42.309Z,1.40
2023-03-16T02:03:13.901Z,1.40
2023-03-16T02:05:42.430Z,1.40
2023-03-16T02:08:09.669Z,1.40
2023-03-16T02:10:36.747Z,1.30
2023-03-16T02:13:03.715Z,1.30
2023-03-16T02:15:30.857Z,1.30
2023-03-16T02:18:00.686Z,1.20
2023-03-16T02:20:36.576Z,1.20
2023-03-16T02:23:04.179Z,1.20
2023-03-16T02:25:41.929Z,1.20
2023-03-16T02:28:11.131Z,1.20
2023-03-16T02:30:37.784Z,1.10
2023-03-16T02:33:05.338Z,1.10
2023-03-16T02:35:33.770Z,1.10
2023-03-16T02:38:00.637Z,1.10
2023-03-16T02:40:31.441Z,1.10
2023-03-16T02:43:02.908Z,1.00
2023-03-16T02:45:44.708Z,1.00
2023-03-16T02:48:15.064Z,1.00
2023-03-16T02:50:47.087Z,0.90
2023-03-16T02:53:14.095Z,1.00
2023-03-16T02:55:43.379Z,1.00
2023-03-16T02:58:11.149Z,0.90
2023-03-16T03:00:38.436Z,0.90
2023-03-16T03:03:06.042Z,0.90
2023-03-16T03:05:32.741Z,0.90
2023-03-16T03:07:59.511Z,0.90
2023-03-16T03:10:26.501Z,0.80
2023-03-16T03:12:54.789Z,0.80
2023-03-16T03:15:21.900Z,0.80
2023-03-16T03:17:48.756Z,0.80
2023-03-16T03:20:18.570Z,0.80
2023-03-16T03:22:48.591Z,0.70
2023-03-16T03:25:15.729Z,0.70
2023-03-16T03:27:42.749Z,0.70
2023-03-16T03:30:12.960Z,0.70
2023-03-16T03:32:40.134Z,0.60
2023-03-16T03:35:07.101Z,0.60
2023-03-16T03:37:35.412Z,0.60
2023-03-16T03:40:10.980Z,0.60
2023-03-16T03:42:38.153Z,0.60
2023-03-16T03:45:05.258Z,0.60
2023-03-16T03:47:32.008Z,0.60
2023-03-16T03:49:58.662Z,0.60
2023-03-16T03:52:25.348Z,0.60
2023-03-16T03:54:54.979Z,0.50
2023-03-16T03:57:22.084Z,0.50
2023-03-16T03:59:49.837Z,0.50
2023-03-16T04:02:16.646Z,0.60
2023-03-16T04:04:43.967Z,0.50
2023-03-16T04:07:12.165Z,0.50
2023-03-16T04:09:39.461Z,0.50
2023-03-16T04:12:07.499Z,0.50
2023-03-16T04:14:35.918Z,0.50
2023-03-16T04:17:05.048Z,0.50
2023-03-16T04:19:32.539Z,0.50
2023-03-16T04:22:00.186Z,0.40
2023-03-16T04:24:26.880Z,0.50
2023-03-16T04:26:54.490Z,0.40
2023-03-16T04:29:21.708Z,0.40
2023-03-16T04:31:48.556Z,0.40
2023-03-16T04:34:15.332Z,0.40
2023-03-16T04:36:42.236Z,0.40
2023-03-16T04:39:09.821Z,0.30
2023-03-16T04:41:36.481Z,0.30
2023-03-16T04:44:05.104Z,0.40
2023-03-16T04:46:32.328Z,0.40
2023-03-16T04:48:59.216Z,0.30
2023-03-16T04:51:26.231Z,0.30
2023-03-16T04:53:53.474Z,0.30
2023-03-16T04:56:20.364Z,0.20
2023-03-16T04:58:47.398Z,0.30
2023-03-16T05:01:14.451Z,0.20
2023-03-16T05:03:43.643Z,0.20
2023-03-16T05:06:10.684Z,0.20
2023-03-16T05:08:37.948Z,0.20
2023-03-16T05:11:04.983Z,0.30
2023-03-16T05:13:31.690Z,0.30
2023-03-16T05:15:59.604Z,0.30
2023-03-16T05:18:27.406Z,0.30
2023-03-16T05:20:56.518Z,0.30
2023-03-16T05:23:25.770Z,0.40
2023-03-16T05:25:54.087Z,0.50
2023-03-16T05:28:23.374Z,0.60
2023-03-16T05:30:50.223Z,0.80
2023-03-16T05:33:17.776Z,0.90
2023-03-16T05:35:44.479Z,1.00
2023-03-16T05:38:11.295Z,1.10
2023-03-16T05:40:39.852Z,1.10
2023-03-16T05:43:06.457Z,1.20
2023-03-16T05:45:33.680Z,1.40
2023-03-16T05:48:01.004Z,1.70
2023-03-16T05:50:28.633Z,2.00
2023-03-16T05:52:56.030Z,2.40
2023-03-16T05:55:23.977Z,2.70
2023-03-16T05:57:52.297Z,3.10
2023-03-16T06:00:19.319Z,3.50
2023-03-16T06:02:49.220Z,3.90
2023-03-16T06:05:16.760Z,4.30
2023-03-16T06:07:43.607Z,4.70
2023-03-16T06:10:14.535Z,5.10
2023-03-16T06:12:41.651Z,5.40
2023-03-16T06:15:11.161Z,5.70
2023-03-16T06:17:38.181Z,5.90
2023-03-16T06:20:10.818Z,6.10
2023-03-16T06:22:39.149Z,6.40
2023-03-16T06:25:06.392Z,6.70
2023-03-16T06:27:33.184Z,6.70
2023-03-16T06:30:00.036Z,6.70
2023-03-16T06:32:26.751Z,6.80
2023-03-16T06:34:54.592Z,6.90
2023-03-16T06:37:21.813Z,6.90
2023-03-16T06:39:49.678Z,7.00
2023-03-16T06:42:17.403Z,7.10
2023-03-16T06:44:44.876Z,7.20
2023-03-16T06:47:15.809Z,7.30
2023-03-16T06:49:45.089Z,7.40
2023-03-16T06:52:13.740Z,7.60
2023-03-16T06:54:41.842Z,7.80
2023-03-16T06:57:10.467Z,8.20
2023-03-16T06:59:38.608Z,8.20
2023-03-16T07:02:06.821Z,8.40
2023-03-16T07:04:34.181Z,8.60
2023-03-16T07:07:04.027Z,8.90
2023-03-16T07:09:31.889Z,9.00
2023-03-16T07:11:58.629Z,9.00
2023-03-16T07:14:27.196Z,9.00
2023-03-16T07:16:53.966Z,9.10
2023-03-16T07:19:24.512Z,9.10
2023-03-16T07:21:51.735Z,9.30
2023-03-16T07:24:19.558Z,9.60
2023-03-16T07:26:46.622Z,10.00
2023-03-16T07:29:13.982Z,10.50
2023-03-16T07:31:41.728Z,10.80
2023-03-16T07:34:09.041Z,10.90
2023-03-16T07:36:36.233Z,11.20
2023-03-16T07:39:03.352Z,11.40
2023-03-16T07:41:32.618Z,11.30
2023-03-16T07:44:00.316Z,11.40
2023-03-16T07:46:27.158Z,11.50
2023-03-16T07:48:53.810Z,11.70
2023-03-16T07:51:21.444Z,11.60
2023-03-16T07:53:49.543Z,11.80
2023-03-16T07:56:16.279Z,11.90
2023-03-16T07:58:44.046Z,11.80
2023-03-16T08:01:12.612Z,11.60
2023-03-16T08:03:39.444Z,11.60
2023-03-16T08:06:06.383Z,11.50
2023-03-16T08:08:33.434Z,11.40
2023-03-16T08:11:00.624Z,11.10
2023-03-16T08:13:27.335Z,11.00
2023-03-16T08:15:58.612Z,10.90
2023-03-16T08:18:26.037Z,10.80
2023-03-16T08:20:57.074Z,10.80
2023-03-16T08:23:26.244Z,10.70
2023-03-16T08:25:56.333Z,10.60
2023-03-16T08:28:23.564Z,10.50
2023-03-16T08:30:51.279Z,10.60
2023-03-16T08:33:20.245Z,10.50
2023-03-16T08:35:48.866Z,10.50
2023-03-16T08:38:16.128Z,10.60
2023-03-16T08:40:47.646Z,10.70
2023-03-16T08:43:17.257Z,10.70
2023-03-16T08:45:52.254Z,10.80
2023-03-16T08:48:20.486Z,10.80
2023-03-16T08:50:47.178Z,10.90
2023-03-16T08:53:16.536Z,11.00
2023-03-16T08:55:47.927Z,11.10
2023-03-16T08:58:15.383Z,11.10
2023-03-16T09:00:43.878Z,11.10
2023-03-16T09:03:12.270Z,11.10
2023-03-16T09:05:40.851Z,10.90
2023-03-16T09:08:08.841Z,10.60
2023-03-16T09:10:36.499Z,10.50
2023-03-16T09:13:07.738Z,10.50
2023-03-16T09:15:37.364Z,10.40
2023-03-16T09:18:04.280Z,10.50
2023-03-16T09:20:35.017Z,10.70
2023-03-16T09:23:04.921Z,10.70
2023-03-16T09:25:35.337Z,10.80
2023-03-16T09:28:03.572Z,10.90
2023-03-16T09:30:33.458Z,11.10
2023-03-16T09:33:01.325Z,11.40
2023-03-16T09:35:28.388Z,11.40
2023-03-16T09:38:06.228Z,11.30
2023-03-16T09:40:33.770Z,11.30
2023-03-16T09:43:22.822Z,11.40
2023-03-16T09:45:53.061Z,11.40
2023-03-16T09:48:21.303Z,11.60
2023-03-16T09:50:50.018Z,11.70
2023-03-16T09:53:24.237Z,11.70
2023-03-16T09:55:54.316Z,11.60
2023-03-16T09:58:21.304Z,11.50
2023-03-16T10:00:53.062Z,11.20
2023-03-16T10:03:35.928Z,11.20
2023-03-16T10:06:04.489Z,11.20
2023-03-16T10:08:34.262Z,11.30
2023-03-16T10:11:13.755Z,11.40
2023-03-16T10:13:43.866Z,11.20
2023-03-16T10:16:33.075Z,11.10
2023-03-16T10:19:28.810Z,11.20
2023-03-16T10:21:57.039Z,11.20
2023-03-16T10:24:44.439Z,11.30
2023-03-16T10:27:14.997Z,11.20
2023-03-16T10:29:41.625Z,11.10
2023-03-16T10:32:19.369Z,11.00
2023-03-16T10:34:53.057Z,11.10
2023-03-16T10:37:21.461Z,11.30
2023-03-16T10:39:49.549Z,11.20
2023-03-16T10:42:17.634Z,11.00
2023-03-16T10:44:45.083Z,10.90
2023-03-16T10:47:19.017Z,10.80
2023-03-16T10:49:50.251Z,10.80
2023-03-16T10:52:30.058Z,10.80
2023-03-16T10:55:01.823Z,10.90
2023-03-16T10:57:34.898Z,10.80
2023-03-16T11:00:13.885Z,10.80
2023-03-16T11:02:40.829Z,11.10
2023-03-16T11:05:20.085Z,11.00
2023-03-16T11:07:58.833Z,10.80
2023-03-16T11:10:28.540Z,10.60
2023-03-16T11:12:58.725Z,10.50
2023-03-16T11:15:28.665Z,10.30
2023-03-16T11:17:55.360Z,10.20
2023-03-16T11:20:23.440Z,10.40
2023-03-16T11:22:51.160Z,10.60
2023-03-16T11:25:26.923Z,10.80
2023-03-16T11:28:08.887Z,10.90
2023-03-16T11:30:55.403Z,11.10
2023-03-16T11:33:25.013Z,11.20
2023-03-16T11:35:59.281Z,11.20
2023-03-16T11:38:50.954Z,11.00
2023-03-16T11:41:23.821Z,11.10
2023-03-16T11:43:54.876Z,10.90
2023-03-16T11:46:34.400Z,11.00
2023-03-16T11:49:02.008Z,11.00
2023-03-16T11:51:47.777Z,11.10
2023-03-16T11:54:14.980Z,11.40
2023-03-16T11:56:46.437Z,11.30
2023-03-16T11:59:14.383Z,11.30
2023-03-16T12:02:00.076Z,11.20
2023-03-16T12:04:42.081Z,11.10
2023-03-16T12:07:09.778Z,11.20
2023-03-16T12:10:06.659Z,11.10
2023-03-16T12:12:40.390Z,10.90
2023-03-16T12:15:14.172Z,10.50
2023-03-16T12:17:41.191Z,10.50
2023-03-16T12:20:18.136Z,10.40
2023-03-16T12:23:12.011Z,10.30
2023-03-16T12:25:40.806Z,10.20
2023-03-16T12:28:16.425Z,10.20
2023-03-16T12:31:03.631Z,10.30
2023-03-16T12:33:40.790Z,10.20
2023-03-16T12:36:10.670Z,10.30
2023-03-16T12:41:49.001Z,10.30
2023-03-16T12:44:50.248Z,10.30
2023-03-16T12:47:24.147Z,10.30
2023-03-16T12:49:53.440Z,10.30
2023-03-16T12:52:20.938Z,10.30
2023-03-16T12:54:52.302Z,10.30
2023-03-16T12:57:22.982Z,10.10
2023-03-16T12:59:53.002Z,10.10
2023-03-16T13:02:33.032Z,10.00
2023-03-16T13:05:01.143Z,9.90
2023-03-16T13:07:28.579Z,9.90
2023-03-16T13:10:00.517Z,9.80
2023-03-16T13:12:28.711Z,9.60
2023-03-16T13:14:55.949Z,9.50
2023-03-16T13:17:24.622Z,9.40
2023-03-16T13:20:02.144Z,9.30
2023-03-16T13:22:33.666Z,9.20
2023-03-16T13:25:00.808Z,9.20
2023-03-16T13:27:28.602Z,9.10
2023-03-16T13:29:59.136Z,9.00
2023-03-16T13:32:29.640Z,9.00
2023-03-16T13:35:00.424Z,9.00
2023-03-16T13:37:29.605Z,8.90
2023-03-16T13:40:00.359Z,9.00
2023-03-16T13:42:31.912Z,9.10
2023-03-16T13:44:58.886Z,9.00
2023-03-16T13:47:29.458Z,9.00
2023-03-16T13:49:59.679Z,9.10
2023-03-16T13:52:32.690Z,8.90
2023-03-16T13:55:06.904Z,8.90
2023-03-16T13:57:36.837Z,8.90
2023-03-16T14:00:03.775Z,8.90
2023-03-16T14:02:31.143Z,8.90
2023-03-16T14:04:57.784Z,8.90
2023-03-16T14:07:27.892Z,9.00
2023-03-16T14:09:59.066Z,8.90
2023-03-16T14:12:26.481Z,8.80
2023-03-16T14:14:55.724Z,8.90
2023-03-16T14:17:22.511Z,8.80
2023-03-16T14:19:51.627Z,8.70
2023-03-16T14:22:21.418Z,8.60
2023-03-16T14:24:53.769Z,8.70
2023-03-16T14:27:22.471Z,8.60
2023-03-16T14:29:55.257Z,8.60
2023-03-16T14:32:33.696Z,8.60
2023-03-16T14:35:13.285Z,8.50
2023-03-16T14:37:40.534Z,8.50
2023-03-16T14:40:28.631Z,8.50
2023-03-16T14:42:55.782Z,8.40
2023-03-16T14:45:23.996Z,8.40
2023-03-16T14:48:01.092Z,8.40
2023-03-16T14:50:30.209Z,8.40
2023-03-16T14:52:57.510Z,8.30
2023-03-16T19:41:18.642Z,3.80
2023-03-16T19:46:33.474Z,3.80
2023-03-16T19:49:12.423Z,3.80
2023-03-16T19:51:43.184Z,3.70
2023-03-16T19:54:42.612Z,3.60
2023-03-16T19:59:58.516Z,3.60
2023-03-16T20:02:35.832Z,3.50
2023-03-16T20:05:04.960Z,3.50
2023-03-16T20:13:16.784Z,3.40
2023-03-16T20:18:32.046Z,3.40
2023-03-16T20:21:00.680Z,3.60
2023-03-16T20:23:38.472Z,3.50
2023-03-16T20:26:08.203Z,3.60
2023-03-16T20:34:05.899Z,3.50
2023-03-16T20:36:44.025Z,3.50
2023-03-16T20:39:13.957Z,3.50
2023-03-16T20:41:59.961Z,3.40
2023-03-16T20:44:34.202Z,3.50
2023-03-16T20:47:01.921Z,3.50
2023-03-16T20:52:31.554Z,3.40
2023-03-16T20:57:43.741Z,3.30
2023-03-16T21:03:18.137Z,3.20
2023-03-16T21:05:46.452Z,3.20
2023-03-16T21:08:15.825Z,3.30
2023-03-16T21:10:44.437Z,3.20
2023-03-16T21:13:18.554Z,3.10
2023-03-16T21:15:47.452Z,3.20
2023-03-16T21:18:23.333Z,3.20
2023-03-16T21:20:55.696Z,3.10
2023-03-16T21:23:23.021Z,3.10
2023-03-16T21:26:00.625Z,3.10
2023-03-16T21:28:30.626Z,3.00
2023-03-16T21:31:03.229Z,3.10
2023-03-16T21:33:41.800Z,3.10
2023-03-16T21:36:20.691Z,3.10
2023-03-16T21:38:55.607Z,3.10
2023-03-16T21:41:23.922Z,3.20
2023-03-16T21:46:56.283Z,3.20
2023-03-16T21:49:30.181Z,3.20
2023-03-16T21:52:04.181Z,3.20
2023-03-16T21:54:37.103Z,3.20
2023-03-16T21:57:13.620Z,3.40
2023-03-16T21:59:51.616Z,3.30
2023-03-16T22:02:39.847Z,3.30
2023-03-16T22:05:27.208Z,3.30
2023-03-16T22:07:59.745Z,3.30
2023-03-16T22:10:32.196Z,3.30
2023-03-16T22:13:00.340Z,3.30
2023-03-16T22:15:32.638Z,3.30
2023-03-16T22:18:24.299Z,3.30
2023-03-16T22:20:55.782Z,3.30
2023-03-16T22:23:35.203Z,3.30
2023-03-16T22:26:07.732Z,3.30
2023-03-16T22:28:35.482Z,3.30
2023-03-16T22:31:03.199Z,3.30
2023-03-16T22:33:30.661Z,3.30
2023-03-16T22:36:00.455Z,3.40
2023-03-16T22:38:29.719Z,3.70
2023-03-16T22:40:58.667Z,3.60
2023-03-16T22:43:33.448Z,3.70
2023-03-16T22:46:00.294Z,3.60
2023-03-16T22:48:35.821Z,3.60
2023-03-16T22:51:07.206Z,3.50
2023-03-16T22:53:47.123Z,3.50
2023-03-16T22:56:14.794Z,3.50
2023-03-16T22:58:58.057Z,3.40
2023-03-16T23:01:33.633Z,3.50
2023-03-16T23:04:09.642Z,3.40
2023-03-16T23:06:36.730Z,3.40
2023-03-16T23:09:03.642Z,3.30
2023-03-16T23:11:32.519Z,3.30
2023-03-16T23:13:59.748Z,3.20
2023-03-16T23:16:35.921Z,3.20
2023-03-16T23:19:18.723Z,3.10
2023-03-16T23:21:50.768Z,3.10
2023-03-16T23:24:22.764Z,3.10
2023-03-16T23:26:50.636Z,3.00
2023-03-16T23:29:17.331Z,2.90
2023-03-16T23:31:45.110Z,2.90
2023-03-16T23:34:12.520Z,2.80
2023-03-16T23:36:46.893Z,2.80
2023-03-16T23:39:22.808Z,2.70
2023-03-16T23:41:49.896Z,2.60
2023-03-16T23:44:17.650Z,2.60
2023-03-16T23:46:44.734Z,2.50
2023-03-16T23:49:16.231Z,2.50
2023-03-16T23:51:42.891Z,2.40
2023-03-16T23:54:26.134Z,2.40
2023-03-16T23:56:54.188Z,2.40
2023-03-16T23:59:21.646Z,2.40
